sensor_id;sensor_type;location;lat;lon;timestamp;P1;durP1;ratioP1;P2;durP2;ratioP2
31716;SDS011;18301;51.076;17.046;2024-02-16T00:00:32;22.63;;;12.15;;
31716;SDS011;18301;51.076;17.046;2024-02-16T00:05:34;22.33;;;12.68;;
31716;SDS011;18301;51.076;17.046;2024-02-16T00:10:37;22.08;;;12.20;;
31716;SDS011;18301;51.076;17.046;2024-02-16T00:15:40;25.45;;;13.18;;
31716;SDS011;18301;51.076;17.046;2024-02-16T00:20:42;26.02;;;13.23;;
31716;SDS011;18301;51.076;17.046;2024-02-16T00:25:44;27.77;;;14.02;;
31716;SDS011;18301;51.076;17.046;2024-02-16T00:30:47;27.88;;;14.68;;
31716;SDS011;18301;51.076;17.046;2024-02-16T00:35:50;29.20;;;13.77;;
31716;SDS011;18301;51.076;17.046;2024-02-16T00:40:54;25.08;;;13.30;;
31716;SDS011;18301;51.076;17.046;2024-02-16T00:45:56;23.63;;;13.30;;
31716;SDS011;18301;51.076;17.046;2024-02-16T00:50:58;25.42;;;13.02;;
31716;SDS011;18301;51.076;17.046;2024-02-16T00:56:00;26.80;;;13.52;;
31716;SDS011;18301;51.076;17.046;2024-02-16T01:01:01;23.40;;;13.18;;
31716;SDS011;18301;51.076;17.046;2024-02-16T01:06:06;24.63;;;13.88;;
31716;SDS011;18301;51.076;17.046;2024-02-16T01:11:10;28.30;;;14.55;;
31716;SDS011;18301;51.076;17.046;2024-02-16T01:16:12;28.48;;;15.25;;
31716;SDS011;18301;51.076;17.046;2024-02-16T01:21:14;21.98;;;13.00;;
31716;SDS011;18301;51.076;17.046;2024-02-16T01:26:16;29.27;;;15.05;;
31716;SDS011;18301;51.076;17.046;2024-02-16T01:31:17;29.27;;;15.77;;
31716;SDS011;18301;51.076;17.046;2024-02-16T01:36:19;29.25;;;15.40;;
31716;SDS011;18301;51.076;17.046;2024-02-16T01:41:21;27.42;;;15.27;;
31716;SDS011;18301;51.076;17.046;2024-02-16T01:46:22;32.35;;;16.15;;
31716;SDS011;18301;51.076;17.046;2024-02-16T01:51:25;32.63;;;17.25;;
31716;SDS011;18301;51.076;17.046;2024-02-16T01:56:27;33.20;;;17.05;;
31716;SDS011;18301;51.076;17.046;2024-02-16T02:01:30;30.80;;;15.63;;
31716;SDS011;18301;51.076;17.046;2024-02-16T02:06:32;30.52;;;15.70;;
31716;SDS011;18301;51.076;17.046;2024-02-16T02:11:34;31.92;;;16.25;;
31716;SDS011;18301;51.076;17.046;2024-02-16T02:16:36;28.42;;;15.35;;
31716;SDS011;18301;51.076;17.046;2024-02-16T02:21:51;27.17;;;14.35;;
31716;SDS011;18301;51.076;17.046;2024-02-16T02:26:53;26.85;;;15.00;;
31716;SDS011;18301;51.076;17.046;2024-02-16T02:31:56;26.40;;;15.18;;
31716;SDS011;18301;51.076;17.046;2024-02-16T02:36:57;24.55;;;14.10;;
31716;SDS011;18301;51.076;17.046;2024-02-16T02:42:00;25.13;;;14.75;;
31716;SDS011;18301;51.076;17.046;2024-02-16T02:47:02;24.85;;;13.38;;
31716;SDS011;18301;51.076;17.046;2024-02-16T02:52:03;26.50;;;14.00;;
31716;SDS011;18301;51.076;17.046;2024-02-16T02:57:08;23.55;;;14.23;;
31716;SDS011;18301;51.076;17.046;2024-02-16T03:02:09;26.30;;;14.43;;
31716;SDS011;18301;51.076;17.046;2024-02-16T03:07:12;24.70;;;14.43;;
31716;SDS011;18301;51.076;17.046;2024-02-16T03:12:13;25.60;;;14.40;;
31716;SDS011;18301;51.076;17.046;2024-02-16T03:17:15;28.23;;;15.50;;
31716;SDS011;18301;51.076;17.046;2024-02-16T03:22:17;28.13;;;15.50;;
31716;SDS011;18301;51.076;17.046;2024-02-16T03:27:19;28.70;;;15.77;;
31716;SDS011;18301;51.076;17.046;2024-02-16T03:32:21;26.15;;;15.00;;
31716;SDS011;18301;51.076;17.046;2024-02-16T03:37:23;28.02;;;15.30;;
31716;SDS011;18301;51.076;17.046;2024-02-16T03:42:24;32.17;;;16.33;;
31716;SDS011;18301;51.076;17.046;2024-02-16T03:47:26;27.20;;;16.15;;
31716;SDS011;18301;51.076;17.046;2024-02-16T03:52:28;27.42;;;15.65;;
31716;SDS011;18301;51.076;17.046;2024-02-16T03:57:30;30.15;;;16.50;;
31716;SDS011;18301;51.076;17.046;2024-02-16T04:02:32;29.88;;;16.58;;
31716;SDS011;18301;51.076;17.046;2024-02-16T04:07:34;31.08;;;17.38;;
31716;SDS011;18301;51.076;17.046;2024-02-16T04:12:36;34.35;;;17.60;;
31716;SDS011;18301;51.076;17.046;2024-02-16T04:17:38;41.28;;;24.25;;
31716;SDS011;18301;51.076;17.046;2024-02-16T04:22:40;41.53;;;23.23;;
31716;SDS011;18301;51.076;17.046;2024-02-16T04:27:41;38.78;;;22.92;;
31716;SDS011;18301;51.076;17.046;2024-02-16T04:32:43;44.63;;;25.08;;
31716;SDS011;18301;51.076;17.046;2024-02-16T04:37:45;42.40;;;22.45;;
31716;SDS011;18301;51.076;17.046;2024-02-16T04:42:46;36.38;;;19.48;;
31716;SDS011;18301;51.076;17.046;2024-02-16T04:47:48;37.88;;;20.70;;
31716;SDS011;18301;51.076;17.046;2024-02-16T04:52:50;41.30;;;21.13;;
31716;SDS011;18301;51.076;17.046;2024-02-16T04:57:52;40.20;;;21.52;;
31716;SDS011;18301;51.076;17.046;2024-02-16T05:02:54;40.00;;;22.02;;
31716;SDS011;18301;51.076;17.046;2024-02-16T05:07:57;44.03;;;22.30;;
31716;SDS011;18301;51.076;17.046;2024-02-16T05:12:58;41.45;;;21.60;;
31716;SDS011;18301;51.076;17.046;2024-02-16T05:18:01;40.38;;;22.27;;
31716;SDS011;18301;51.076;17.046;2024-02-16T05:23:04;41.25;;;22.23;;
31716;SDS011;18301;51.076;17.046;2024-02-16T05:28:05;39.78;;;22.35;;
31716;SDS011;18301;51.076;17.046;2024-02-16T05:33:07;41.50;;;22.23;;
31716;SDS011;18301;51.076;17.046;2024-02-16T05:38:09;37.83;;;21.48;;
31716;SDS011;18301;51.076;17.046;2024-02-16T05:43:22;38.65;;;21.60;;
31716;SDS011;18301;51.076;17.046;2024-02-16T05:48:27;41.33;;;21.85;;
31716;SDS011;18301;51.076;17.046;2024-02-16T05:53:32;41.05;;;22.75;;
31716;SDS011;18301;51.076;17.046;2024-02-16T05:58:34;48.17;;;26.02;;
31716;SDS011;18301;51.076;17.046;2024-02-16T06:03:36;38.80;;;22.63;;
31716;SDS011;18301;51.076;17.046;2024-02-16T06:08:38;37.13;;;21.05;;
31716;SDS011;18301;51.076;17.046;2024-02-16T06:13:40;38.65;;;20.48;;
31716;SDS011;18301;51.076;17.046;2024-02-16T06:18:42;34.13;;;19.75;;
31716;SDS011;18301;51.076;17.046;2024-02-16T06:23:44;32.30;;;17.85;;
31716;SDS011;18301;51.076;17.046;2024-02-16T06:28:46;30.13;;;16.75;;
31716;SDS011;18301;51.076;17.046;2024-02-16T06:33:47;27.45;;;15.20;;
31716;SDS011;18301;51.076;17.046;2024-02-16T06:38:49;29.75;;;16.15;;
31716;SDS011;18301;51.076;17.046;2024-02-16T06:43:53;23.70;;;13.73;;
31716;SDS011;18301;51.076;17.046;2024-02-16T06:48:55;23.92;;;15.40;;
31716;SDS011;18301;51.076;17.046;2024-02-16T06:53:57;22.83;;;13.70;;
31716;SDS011;18301;51.076;17.046;2024-02-16T06:58:59;23.75;;;13.32;;
31716;SDS011;18301;51.076;17.046;2024-02-16T07:04:01;23.42;;;13.65;;
31716;SDS011;18301;51.076;17.046;2024-02-16T07:09:03;19.42;;;11.77;;
31716;SDS011;18301;51.076;17.046;2024-02-16T07:14:05;21.95;;;12.77;;
31716;SDS011;18301;51.076;17.046;2024-02-16T07:19:08;20.95;;;12.68;;
31716;SDS011;18301;51.076;17.046;2024-02-16T07:24:10;21.10;;;12.27;;
31716;SDS011;18301;51.076;17.046;2024-02-16T07:29:12;19.02;;;11.77;;
31716;SDS011;18301;51.076;17.046;2024-02-16T07:34:18;21.02;;;11.85;;
31716;SDS011;18301;51.076;17.046;2024-02-16T07:39:20;18.60;;;10.68;;
31716;SDS011;18301;51.076;17.046;2024-02-16T07:44:24;24.30;;;12.88;;
31716;SDS011;18301;51.076;17.046;2024-02-16T07:49:28;21.80;;;10.98;;
31716;SDS011;18301;51.076;17.046;2024-02-16T07:54:30;19.73;;;10.95;;
31716;SDS011;18301;51.076;17.046;2024-02-16T07:59:32;18.33;;;10.77;;
31716;SDS011;18301;51.076;17.046;2024-02-16T08:04:34;18.13;;;11.65;;
31716;SDS011;18301;51.076;17.046;2024-02-16T08:09:35;19.40;;;11.63;;
31716;SDS011;18301;51.076;17.046;2024-02-16T08:14:38;20.95;;;12.30;;
31716;SDS011;18301;51.076;17.046;2024-02-16T08:19:41;18.55;;;10.50;;
31716;SDS011;18301;51.076;17.046;2024-02-16T08:24:43;17.65;;;10.35;;
31716;SDS011;18301;51.076;17.046;2024-02-16T08:29:47;16.45;;;10.10;;
31716;SDS011;18301;51.076;17.046;2024-02-16T08:34:49;16.75;;;9.77;;
31716;SDS011;18301;51.076;17.046;2024-02-16T08:39:52;16.77;;;10.32;;
31716;SDS011;18301;51.076;17.046;2024-02-16T08:44:54;17.00;;;10.35;;
31716;SDS011;18301;51.076;17.046;2024-02-16T08:49:55;18.13;;;10.25;;
31716;SDS011;18301;51.076;17.046;2024-02-16T08:54:57;19.10;;;9.65;;
31716;SDS011;18301;51.076;17.046;2024-02-16T08:59:59;14.65;;;9.35;;
31716;SDS011;18301;51.076;17.046;2024-02-16T09:05:01;14.60;;;8.80;;
31716;SDS011;18301;51.076;17.046;2024-02-16T09:10:03;14.95;;;7.93;;
31716;SDS011;18301;51.076;17.046;2024-02-16T09:15:06;15.00;;;8.63;;
31716;SDS011;18301;51.076;17.046;2024-02-16T09:20:08;15.23;;;8.27;;
31716;SDS011;18301;51.076;17.046;2024-02-16T09:25:10;12.82;;;7.88;;
31716;SDS011;18301;51.076;17.046;2024-02-16T09:30:12;16.50;;;8.07;;
31716;SDS011;18301;51.076;17.046;2024-02-16T09:35:14;14.25;;;7.97;;
31716;SDS011;18301;51.076;17.046;2024-02-16T09:40:16;14.05;;;8.00;;
31716;SDS011;18301;51.076;17.046;2024-02-16T09:45:19;13.18;;;7.18;;
31716;SDS011;18301;51.076;17.046;2024-02-16T09:50:21;20.98;;;8.65;;
31716;SDS011;18301;51.076;17.046;2024-02-16T09:55:23;13.73;;;9.43;;
31716;SDS011;18301;51.076;17.046;2024-02-16T10:00:26;13.18;;;8.73;;
31716;SDS011;18301;51.076;17.046;2024-02-16T10:05:28;13.18;;;8.13;;
31716;SDS011;18301;51.076;17.046;2024-02-16T10:10:32;17.33;;;7.53;;
31716;SDS011;18301;51.076;17.046;2024-02-16T10:15:35;11.77;;;7.68;;
31716;SDS011;18301;51.076;17.046;2024-02-16T10:20:37;13.38;;;6.88;;
31716;SDS011;18301;51.076;17.046;2024-02-16T10:25:40;8.48;;;5.22;;
31716;SDS011;18301;51.076;17.046;2024-02-16T10:30:42;7.28;;;4.50;;
31716;SDS011;18301;51.076;17.046;2024-02-16T10:35:46;6.15;;;4.47;;
31716;SDS011;18301;51.076;17.046;2024-02-16T10:40:48;6.15;;;4.28;;
31716;SDS011;18301;51.076;17.046;2024-02-16T10:45:51;14.98;;;7.90;;
31716;SDS011;18301;51.076;17.046;2024-02-16T10:50:55;6.43;;;4.72;;
31716;SDS011;18301;51.076;17.046;2024-02-16T10:55:59;7.63;;;4.18;;
31716;SDS011;18301;51.076;17.046;2024-02-16T11:01:15;6.43;;;3.80;;
31716;SDS011;18301;51.076;17.046;2024-02-16T11:06:17;7.78;;;5.32;;
31716;SDS011;18301;51.076;17.046;2024-02-16T11:11:23;6.63;;;3.80;;
31716;SDS011;18301;51.076;17.046;2024-02-16T11:16:25;6.88;;;3.90;;
31716;SDS011;18301;51.076;17.046;2024-02-16T11:21:31;9.55;;;5.38;;
31716;SDS011;18301;51.076;17.046;2024-02-16T11:26:41;8.35;;;4.32;;
31716;SDS011;18301;51.076;17.046;2024-02-16T11:31:44;6.85;;;4.20;;
31716;SDS011;18301;51.076;17.046;2024-02-16T11:36:47;5.55;;;4.32;;
31716;SDS011;18301;51.076;17.046;2024-02-16T11:41:58;7.40;;;4.50;;
31716;SDS011;18301;51.076;17.046;2024-02-16T11:47:03;5.70;;;4.05;;
31716;SDS011;18301;51.076;17.046;2024-02-16T11:52:05;6.07;;;3.88;;
31716;SDS011;18301;51.076;17.046;2024-02-16T11:57:06;5.70;;;4.35;;
31716;SDS011;18301;51.076;17.046;2024-02-16T12:02:16;6.78;;;4.25;;
31716;SDS011;18301;51.076;17.046;2024-02-16T12:07:20;7.20;;;4.53;;
31716;SDS011;18301;51.076;17.046;2024-02-16T12:12:21;6.35;;;4.45;;
31716;SDS011;18301;51.076;17.046;2024-02-16T12:17:23;6.05;;;4.10;;
31716;SDS011;18301;51.076;17.046;2024-02-16T12:22:25;8.13;;;5.30;;
31716;SDS011;18301;51.076;17.046;2024-02-16T12:27:27;7.50;;;4.28;;
31716;SDS011;18301;51.076;17.046;2024-02-16T12:32:28;6.18;;;4.50;;
31716;SDS011;18301;51.076;17.046;2024-02-16T12:37:30;7.40;;;4.05;;
31716;SDS011;18301;51.076;17.046;2024-02-16T12:42:32;9.70;;;5.40;;
31716;SDS011;18301;51.076;17.046;2024-02-16T12:47:34;6.85;;;4.20;;
31716;SDS011;18301;51.076;17.046;2024-02-16T12:52:36;5.50;;;4.28;;
31716;SDS011;18301;51.076;17.046;2024-02-16T12:57:51;6.82;;;4.15;;
31716;SDS011;18301;51.076;17.046;2024-02-16T13:02:53;7.18;;;4.40;;
31716;SDS011;18301;51.076;17.046;2024-02-16T13:07:55;4.25;;;3.42;;
31716;SDS011;18301;51.076;17.046;2024-02-16T13:12:57;7.00;;;4.30;;
31716;SDS011;18301;51.076;17.046;2024-02-16T13:17:58;5.80;;;4.20;;
31716;SDS011;18301;51.076;17.046;2024-02-16T13:23:01;5.55;;;4.30;;
31716;SDS011;18301;51.076;17.046;2024-02-16T13:28:03;5.50;;;4.25;;
31716;SDS011;18301;51.076;17.046;2024-02-16T13:33:05;6.82;;;4.43;;
31716;SDS011;18301;51.076;17.046;2024-02-16T13:38:07;8.40;;;4.68;;
31716;SDS011;18301;51.076;17.046;2024-02-16T13:43:09;7.40;;;4.95;;
31716;SDS011;18301;51.076;17.046;2024-02-16T13:48:11;8.32;;;5.28;;
31716;SDS011;18301;51.076;17.046;2024-02-16T13:53:14;6.28;;;4.88;;
31716;SDS011;18301;51.076;17.046;2024-02-16T13:58:21;7.80;;;4.57;;
31716;SDS011;18301;51.076;17.046;2024-02-16T14:03:23;8.43;;;4.72;;
31716;SDS011;18301;51.076;17.046;2024-02-16T14:08:24;6.57;;;4.82;;
31716;SDS011;18301;51.076;17.046;2024-02-16T14:13:28;6.60;;;4.70;;
31716;SDS011;18301;51.076;17.046;2024-02-16T14:18:30;8.32;;;5.03;;
31716;SDS011;18301;51.076;17.046;2024-02-16T14:23:36;8.93;;;5.68;;
31716;SDS011;18301;51.076;17.046;2024-02-16T14:28:38;7.05;;;4.90;;
31716;SDS011;18301;51.076;17.046;2024-02-16T14:33:39;9.95;;;5.28;;
31716;SDS011;18301;51.076;17.046;2024-02-16T14:38:41;9.32;;;5.45;;
31716;SDS011;18301;51.076;17.046;2024-02-16T14:43:43;10.20;;;6.35;;
31716;SDS011;18301;51.076;17.046;2024-02-16T14:48:45;11.27;;;7.00;;
31716;SDS011;18301;51.076;17.046;2024-02-16T14:53:48;9.50;;;6.10;;
31716;SDS011;18301;51.076;17.046;2024-02-16T14:58:51;8.95;;;6.15;;
31716;SDS011;18301;51.076;17.046;2024-02-16T15:03:53;11.23;;;5.55;;
31716;SDS011;18301;51.076;17.046;2024-02-16T15:08:55;10.00;;;5.53;;
31716;SDS011;18301;51.076;17.046;2024-02-16T15:13:57;9.13;;;5.97;;
31716;SDS011;18301;51.076;17.046;2024-02-16T15:18:58;8.88;;;6.47;;
31716;SDS011;18301;51.076;17.046;2024-02-16T15:24:00;8.98;;;5.85;;
31716;SDS011;18301;51.076;17.046;2024-02-16T15:29:02;13.05;;;6.38;;
31716;SDS011;18301;51.076;17.046;2024-02-16T15:34:04;11.43;;;7.20;;
31716;SDS011;18301;51.076;17.046;2024-02-16T15:39:06;12.50;;;7.10;;
31716;SDS011;18301;51.076;17.046;2024-02-16T15:44:09;12.70;;;7.25;;
31716;SDS011;18301;51.076;17.046;2024-02-16T15:49:13;12.52;;;7.70;;
31716;SDS011;18301;51.076;17.046;2024-02-16T15:54:15;11.63;;;7.35;;
31716;SDS011;18301;51.076;17.046;2024-02-16T15:59:17;12.93;;;7.57;;
31716;SDS011;18301;51.076;17.046;2024-02-16T16:04:19;11.43;;;7.40;;
31716;SDS011;18301;51.076;17.046;2024-02-16T16:09:21;10.82;;;7.20;;
31716;SDS011;18301;51.076;17.046;2024-02-16T16:14:23;12.50;;;7.55;;
31716;SDS011;18301;51.076;17.046;2024-02-16T16:19:26;13.48;;;8.32;;
31716;SDS011;18301;51.076;17.046;2024-02-16T16:24:28;14.05;;;8.43;;
31716;SDS011;18301;51.076;17.046;2024-02-16T16:29:30;13.73;;;8.15;;
31716;SDS011;18301;51.076;17.046;2024-02-16T16:34:32;13.60;;;7.85;;
31716;SDS011;18301;51.076;17.046;2024-02-16T16:39:34;12.30;;;8.15;;
31716;SDS011;18301;51.076;17.046;2024-02-16T16:44:36;12.52;;;7.93;;
31716;SDS011;18301;51.076;17.046;2024-02-16T16:49:38;14.68;;;8.10;;
31716;SDS011;18301;51.076;17.046;2024-02-16T16:54:42;14.82;;;8.85;;
31716;SDS011;18301;51.076;17.046;2024-02-16T16:59:43;13.23;;;8.70;;
31716;SDS011;18301;51.076;17.046;2024-02-16T17:04:45;15.18;;;8.90;;
31716;SDS011;18301;51.076;17.046;2024-02-16T17:09:47;13.52;;;8.80;;
31716;SDS011;18301;51.076;17.046;2024-02-16T17:14:53;13.45;;;8.93;;
31716;SDS011;18301;51.076;17.046;2024-02-16T17:19:55;15.27;;;8.95;;
31716;SDS011;18301;51.076;17.046;2024-02-16T17:24:57;18.08;;;9.68;;
31716;SDS011;18301;51.076;17.046;2024-02-16T17:29:59;18.40;;;9.00;;
31716;SDS011;18301;51.076;17.046;2024-02-16T17:35:01;16.05;;;9.57;;
31716;SDS011;18301;51.076;17.046;2024-02-16T17:40:03;14.05;;;7.72;;
31716;SDS011;18301;51.076;17.046;2024-02-16T17:45:05;14.63;;;9.65;;
31716;SDS011;18301;51.076;17.046;2024-02-16T17:50:08;16.27;;;8.25;;
31716;SDS011;18301;51.076;17.046;2024-02-16T17:55:11;15.70;;;9.07;;
31716;SDS011;18301;51.076;17.046;2024-02-16T18:00:12;17.45;;;9.45;;
31716;SDS011;18301;51.076;17.046;2024-02-16T18:05:15;15.30;;;8.88;;
31716;SDS011;18301;51.076;17.046;2024-02-16T18:10:17;12.82;;;7.78;;
31716;SDS011;18301;51.076;17.046;2024-02-16T18:15:19;13.32;;;7.47;;
31716;SDS011;18301;51.076;17.046;2024-02-16T18:20:21;11.15;;;7.55;;
31716;SDS011;18301;51.076;17.046;2024-02-16T18:25:23;11.93;;;7.15;;
31716;SDS011;18301;51.076;17.046;2024-02-16T18:30:25;14.20;;;7.63;;
31716;SDS011;18301;51.076;17.046;2024-02-16T18:35:27;12.75;;;8.02;;
31716;SDS011;18301;51.076;17.046;2024-02-16T18:40:28;15.13;;;8.05;;
31716;SDS011;18301;51.076;17.046;2024-02-16T18:45:30;17.25;;;8.70;;
31716;SDS011;18301;51.076;17.046;2024-02-16T18:50:32;14.20;;;8.13;;
31716;SDS011;18301;51.076;17.046;2024-02-16T18:55:33;12.95;;;7.60;;
31716;SDS011;18301;51.076;17.046;2024-02-16T19:00:36;12.25;;;7.40;;
31716;SDS011;18301;51.076;17.046;2024-02-16T19:05:39;12.32;;;7.70;;
31716;SDS011;18301;51.076;17.046;2024-02-16T19:10:40;10.70;;;6.80;;
31716;SDS011;18301;51.076;17.046;2024-02-16T19:15:43;11.77;;;7.25;;
31716;SDS011;18301;51.076;17.046;2024-02-16T19:20:45;11.80;;;7.22;;
31716;SDS011;18301;51.076;17.046;2024-02-16T19:25:47;12.38;;;6.60;;
31716;SDS011;18301;51.076;17.046;2024-02-16T19:30:49;11.75;;;7.28;;
31716;SDS011;18301;51.076;17.046;2024-02-16T19:35:50;12.80;;;6.88;;
31716;SDS011;18301;51.076;17.046;2024-02-16T19:40:53;10.75;;;6.90;;
31716;SDS011;18301;51.076;17.046;2024-02-16T19:45:55;12.30;;;7.43;;
31716;SDS011;18301;51.076;17.046;2024-02-16T19:50:57;11.70;;;7.07;;
31716;SDS011;18301;51.076;17.046;2024-02-16T19:55:59;12.32;;;7.40;;
31716;SDS011;18301;51.076;17.046;2024-02-16T20:01:01;12.00;;;8.15;;
31716;SDS011;18301;51.076;17.046;2024-02-16T20:06:04;14.95;;;9.15;;
31716;SDS011;18301;51.076;17.046;2024-02-16T20:11:07;15.75;;;9.48;;
31716;SDS011;18301;51.076;17.046;2024-02-16T20:16:09;13.98;;;7.65;;
31716;SDS011;18301;51.076;17.046;2024-02-16T20:21:11;14.55;;;8.38;;
31716;SDS011;18301;51.076;17.046;2024-02-16T20:26:20;16.13;;;9.32;;
31716;SDS011;18301;51.076;17.046;2024-02-16T20:31:23;15.43;;;8.13;;
31716;SDS011;18301;51.076;17.046;2024-02-16T20:36:24;14.93;;;8.70;;
31716;SDS011;18301;51.076;17.046;2024-02-16T20:41:26;12.90;;;8.88;;
31716;SDS011;18301;51.076;17.046;2024-02-16T20:46:28;14.52;;;8.38;;
31716;SDS011;18301;51.076;17.046;2024-02-16T20:51:29;17.58;;;8.38;;
31716;SDS011;18301;51.076;17.046;2024-02-16T20:56:31;12.70;;;7.88;;
31716;SDS011;18301;51.076;17.046;2024-02-16T21:01:34;12.98;;;8.02;;
31716;SDS011;18301;51.076;17.046;2024-02-16T21:06:36;12.63;;;8.23;;
31716;SDS011;18301;51.076;17.046;2024-02-16T21:11:42;16.88;;;8.80;;
31716;SDS011;18301;51.076;17.046;2024-02-16T21:16:44;13.93;;;8.32;;
31716;SDS011;18301;51.076;17.046;2024-02-16T21:21:48;15.25;;;8.02;;
31716;SDS011;18301;51.076;17.046;2024-02-16T21:26:50;13.45;;;8.88;;
31716;SDS011;18301;51.076;17.046;2024-02-16T21:31:53;13.35;;;8.50;;
31716;SDS011;18301;51.076;17.046;2024-02-16T21:36:54;18.55;;;9.27;;
31716;SDS011;18301;51.076;17.046;2024-02-16T21:41:59;14.82;;;8.73;;
31716;SDS011;18301;51.076;17.046;2024-02-16T21:47:01;16.55;;;9.88;;
31716;SDS011;18301;51.076;17.046;2024-02-16T21:52:05;15.48;;;9.32;;
31716;SDS011;18301;51.076;17.046;2024-02-16T21:57:07;17.63;;;10.35;;
31716;SDS011;18301;51.076;17.046;2024-02-16T22:02:09;18.42;;;11.07;;
31716;SDS011;18301;51.076;17.046;2024-02-16T22:07:11;18.90;;;11.52;;
31716;SDS011;18301;51.076;17.046;2024-02-16T22:12:14;22.35;;;12.18;;
31716;SDS011;18301;51.076;17.046;2024-02-16T22:17:16;22.73;;;12.07;;
31716;SDS011;18301;51.076;17.046;2024-02-16T22:22:17;24.73;;;11.73;;
31716;SDS011;18301;51.076;17.046;2024-02-16T22:27:19;20.55;;;12.45;;
31716;SDS011;18301;51.076;17.046;2024-02-16T22:32:21;22.15;;;12.18;;
31716;SDS011;18301;51.076;17.046;2024-02-16T22:37:23;22.65;;;12.95;;
31716;SDS011;18301;51.076;17.046;2024-02-16T22:42:24;35.28;;;16.75;;
31716;SDS011;18301;51.076;17.046;2024-02-16T22:47:26;50.25;;;23.63;;
31716;SDS011;18301;51.076;17.046;2024-02-16T22:52:28;65.07;;;28.65;;
31716;SDS011;18301;51.076;17.046;2024-02-16T22:57:30;59.33;;;27.30;;
31716;SDS011;18301;51.076;17.046;2024-02-16T23:02:32;57.95;;;27.00;;
31716;SDS011;18301;51.076;17.046;2024-02-16T23:07:33;66.15;;;28.80;;
31716;SDS011;18301;51.076;17.046;2024-02-16T23:12:36;79.65;;;34.05;;
31716;SDS011;18301;51.076;17.046;2024-02-16T23:17:38;77.82;;;36.42;;
31716;SDS011;18301;51.076;17.046;2024-02-16T23:22:59;73.57;;;32.13;;
31716;SDS011;18301;51.076;17.046;2024-02-16T23:28:11;77.53;;;34.42;;
31716;SDS011;18301;51.076;17.046;2024-02-16T23:33:15;71.57;;;34.03;;
31716;SDS011;18301;51.076;17.046;2024-02-16T23:38:17;72.93;;;35.35;;
31716;SDS011;18301;51.076;17.046;2024-02-16T23:43:18;69.40;;;34.17;;
31716;SDS011;18301;51.076;17.046;2024-02-16T23:48:20;52.83;;;26.83;;
31716;SDS011;18301;51.076;17.046;2024-02-16T23:53:22;37.85;;;19.88;;
31716;SDS011;18301;51.076;17.046;2024-02-16T23:58:23;34.45;;;19.23;;
